Arkansas Post National Memor, Arkansas
Current Conditions -  °F | °C
As of 4:53 PM on Tuesday 27 Jan 2015 (Local Time) from KPBF Reporting Station
Clear Clear  
Wind Chill: 58°   Ceiling: Unl
Heat Index: 58°   Visibility: 10mi
Dew Point: 39°   Wind: 6mph
Humidity: 49%   Direction: 70°ENE
Pressure: 30.13"   Gusts: NA
Location:  34.1564°N, 91.3915°W
Report Text: KPBF 272253Z AUTO 07005KT 10SM CLR 14/04 A3013 RMK AO2 SLP203 T01440039
Loading
Personal Weather Stations






























Interactive Weather Map New forecast layout! Learn more

10-Day Weather Forecast

Advertisements
Track Severe Weather on mobile